BAW2JA KJFK-EGKK
Flight info
| Callsign | BAW2JA |
|---|---|
| Flight time | N/A |
| Altitude | 39000 |
| Route | BETTE DCT ACK DCT BRADD N427A ELSIR/M084F400 DCT 50N050W 51N040W 52N030W 53N020W DCT MALOT DCT GISTI/N0483F410 DCT KER DCT NORLA DCT FONZU DCT ELRIP DCT OTMET |
| Aircraft | B772/H-SDE2E3FGHIJ5LORVWXY/LB1D1 |
Departure
| Time | 2026-05-06 12:20 |
|---|---|
| Airport | John F. Kennedy International Airport (KJFK) |
Arrival
| Time | N/A |
|---|---|
| Airport | London Gatwick Airport (EGKK) |
| Time | Latitude | Longitude | Altitude | Speed | Heading |
|---|---|---|---|---|---|
| 2026-05-06 11:50 | 40.64855 | -73.78884 | 28 ft | 0 kts | 245° |
| 2026-05-06 12:09 | 40.64856 | -73.78881 | 28 ft | 2 kts | 245° |
| 2026-05-06 12:09 | 40.64865 | -73.78856 | 26 ft | 4 kts | 230° |
| 2026-05-06 12:10 | 40.64878 | -73.78835 | 26 ft | 4 kts | 273° |
| 2026-05-06 12:10 | 40.64867 | -73.78816 | 25 ft | 4 kts | 335° |
| 2026-05-06 12:10 | 40.64845 | -73.78802 | 26 ft | 1 kts | 335° |
| 2026-05-06 12:13 | 40.64865 | -73.78814 | 28 ft | 5 kts | 335° |
| 2026-05-06 12:13 | 40.64918 | -73.78838 | 28 ft | 14 kts | 343° |
| 2026-05-06 12:14 | 40.64997 | -73.78872 | 28 ft | 10 kts | 332° |
| 2026-05-06 12:14 | 40.65059 | -73.78916 | 28 ft | 10 kts | 354° |
| 2026-05-06 12:14 | 40.65130 | -73.78909 | 28 ft | 10 kts | 5° |
| 2026-05-06 12:14 | 40.65198 | -73.78885 | 28 ft | 10 kts | 37° |
| 2026-05-06 12:15 | 40.65228 | -73.78789 | 28 ft | 13 kts | 71° |
| 2026-05-06 12:15 | 40.65272 | -73.78676 | 32 ft | 14 kts | 60° |
| 2026-05-06 12:15 | 40.65328 | -73.78539 | 28 ft | 19 kts | 65° |
| 2026-05-06 12:15 | 40.65390 | -73.78384 | 29 ft | 19 kts | 56° |
| 2026-05-06 12:16 | 40.65460 | -73.78234 | 28 ft | 19 kts | 60° |
| 2026-05-06 12:16 | 40.65492 | -73.78115 | 28 ft | 14 kts | 104° |
| 2026-05-06 12:16 | 40.65443 | -73.78006 | 27 ft | 14 kts | 121° |
| 2026-05-06 12:16 | 40.65380 | -73.77868 | 30 ft | 23 kts | 121° |
| 2026-05-06 12:17 | 40.65285 | -73.77660 | 27 ft | 27 kts | 121° |
| 2026-05-06 12:17 | 40.65188 | -73.77448 | 26 ft | 27 kts | 120° |
| 2026-05-06 12:17 | 40.65092 | -73.77232 | 29 ft | 27 kts | 121° |
| 2026-05-06 12:17 | 40.64994 | -73.77017 | 31 ft | 27 kts | 121° |
| 2026-05-06 12:18 | 40.64914 | -73.76839 | 29 ft | 20 kts | 121° |
| 2026-05-06 12:18 | 40.64875 | -73.76703 | 32 ft | 14 kts | 66° |
| 2026-05-06 12:18 | 40.64957 | -73.76636 | 31 ft | 14 kts | 28° |
| 2026-05-06 12:18 | 40.65008 | -73.76545 | 28 ft | 14 kts | 108° |
| 2026-05-06 12:19 | 40.64960 | -73.76447 | 27 ft | 11 kts | 130° |
| 2026-05-06 12:19 | 40.64900 | -73.76449 | 32 ft | 3 kts | 212° |
| 2026-05-06 12:19 | 40.64899 | -73.76450 | 32 ft | 0 kts | 211° |
| 2026-05-06 12:19 | 40.64831 | -73.76504 | 29 ft | 39 kts | 211° |
| 2026-05-06 12:20 | 40.64345 | -73.76883 | 30 ft | 121 kts | 211° |
| 2026-05-06 12:20 | 40.63436 | -73.77599 | 211 ft | 173 kts | 210° |
| 2026-05-06 12:20 | 40.62352 | -73.78433 | 1030 ft | 185 kts | 211° |
| 2026-05-06 12:20 | 40.61292 | -73.79219 | 2385 ft | 167 kts | 213° |
| 2026-05-06 12:21 | 40.60279 | -73.80074 | 2834 ft | 184 kts | 216° |
| 2026-05-06 12:21 | 40.59174 | -73.81075 | 3223 ft | 199 kts | 216° |
| 2026-05-06 12:21 | 40.57936 | -73.81933 | 3712 ft | 210 kts | 196° |
| 2026-05-06 12:21 | 40.56431 | -73.81862 | 4336 ft | 225 kts | 174° |
| 2026-05-06 12:22 | 40.54920 | -73.81048 | 4835 ft | 249 kts | 153° |
| 2026-05-06 12:22 | 40.53665 | -73.79338 | 5392 ft | 274 kts | 127° |
| 2026-05-06 12:22 | 40.53089 | -73.76876 | 6086 ft | 293 kts | 98° |
| 2026-05-06 12:22 | 40.53147 | -73.74165 | 6700 ft | 302 kts | 91° |
| 2026-05-06 12:23 | 40.53280 | -73.71389 | 7416 ft | 306 kts | 91° |
| 2026-05-06 12:23 | 40.53421 | -73.68589 | 8186 ft | 309 kts | 91° |
| 2026-05-06 12:23 | 40.53558 | -73.65748 | 8891 ft | 314 kts | 92° |
| 2026-05-06 12:23 | 40.53690 | -73.62858 | 9565 ft | 320 kts | 93° |
| 2026-05-06 12:24 | 40.53816 | -73.59922 | 10263 ft | 325 kts | 93° |
| 2026-05-06 12:24 | 40.53937 | -73.56937 | 10927 ft | 328 kts | 93° |
| 2026-05-06 12:24 | 40.54056 | -73.53936 | 11720 ft | 329 kts | 92° |
| 2026-05-06 12:24 | 40.54171 | -73.50889 | 12246 ft | 343 kts | 92° |
| 2026-05-06 12:25 | 40.54285 | -73.47636 | 12441 ft | 369 kts | 92° |
| 2026-05-06 12:25 | 40.54406 | -73.44157 | 12640 ft | 393 kts | 92° |
| 2026-05-06 12:25 | 40.54538 | -73.40497 | 13188 ft | 407 kts | 91° |
| 2026-05-06 12:25 | 40.54676 | -73.36740 | 13919 ft | 415 kts | 91° |
| 2026-05-06 12:26 | 40.54816 | -73.32927 | 14711 ft | 420 kts | 91° |
| 2026-05-06 12:26 | 40.54956 | -73.29076 | 15545 ft | 423 kts | 91° |
| 2026-05-06 12:26 | 40.55093 | -73.25193 | 16351 ft | 428 kts | 90° |
| 2026-05-06 12:26 | 40.55227 | -73.21307 | 17131 ft | 434 kts | 90° |
| 2026-05-06 12:27 | 40.55365 | -73.17266 | 17924 ft | 440 kts | 90° |
| 2026-05-06 12:27 | 40.55502 | -73.13229 | 18649 ft | 445 kts | 90° |
| 2026-05-06 12:27 | 40.55639 | -73.09137 | 19328 ft | 451 kts | 90° |
| 2026-05-06 12:27 | 40.55794 | -73.04999 | 19996 ft | 457 kts | 87° |
| 2026-05-06 12:28 | 40.56208 | -73.00880 | 20648 ft | 464 kts | 80° |
| 2026-05-06 12:28 | 40.56967 | -72.96676 | 21337 ft | 469 kts | 73° |
| 2026-05-06 12:28 | 40.58005 | -72.92585 | 22046 ft | 473 kts | 71° |
| 2026-05-06 12:28 | 40.59072 | -72.88534 | 22718 ft | 478 kts | 70° |
| 2026-05-06 12:29 | 40.60168 | -72.84381 | 23370 ft | 483 kts | 70° |
| 2026-05-06 12:29 | 40.61267 | -72.80187 | 23925 ft | 488 kts | 70° |
| 2026-05-06 12:29 | 40.62368 | -72.75945 | 24448 ft | 492 kts | 70° |
| 2026-05-06 12:29 | 40.63468 | -72.71666 | 24988 ft | 495 kts | 70° |
| 2026-05-06 12:30 | 40.64569 | -72.67357 | 25534 ft | 498 kts | 70° |
| 2026-05-06 12:30 | 40.65671 | -72.63019 | 26047 ft | 501 kts | 70° |
| 2026-05-06 12:30 | 40.66778 | -72.58650 | 26513 ft | 505 kts | 70° |
| 2026-05-06 12:30 | 40.67891 | -72.54247 | 26980 ft | 508 kts | 70° |
| 2026-05-06 12:31 | 40.69011 | -72.49812 | 27427 ft | 511 kts | 70° |
| 2026-05-06 12:31 | 40.70135 | -72.45352 | 27859 ft | 515 kts | 70° |
| 2026-05-06 12:31 | 40.71265 | -72.40863 | 28282 ft | 518 kts | 70° |
| 2026-05-06 12:31 | 40.72401 | -72.36341 | 28684 ft | 521 kts | 70° |
| 2026-05-06 12:32 | 40.73542 | -72.31789 | 29074 ft | 524 kts | 70° |
| 2026-05-06 12:32 | 40.74688 | -72.27212 | 29446 ft | 527 kts | 70° |
| 2026-05-06 12:32 | 40.75839 | -72.22606 | 29821 ft | 529 kts | 70° |
| 2026-05-06 12:32 | 40.76988 | -72.17999 | 30205 ft | 529 kts | 70° |
| 2026-05-06 12:33 | 40.78138 | -72.13378 | 30464 ft | 532 kts | 70° |
| 2026-05-06 12:33 | 40.79291 | -72.08732 | 30707 ft | 535 kts | 70° |
| 2026-05-06 12:33 | 40.80453 | -72.04048 | 30899 ft | 538 kts | 70° |
| 2026-05-06 12:33 | 40.81615 | -71.99348 | 31200 ft | 538 kts | 70° |
| 2026-05-06 12:34 | 40.82773 | -71.94658 | 31575 ft | 537 kts | 70° |
| 2026-05-06 12:34 | 40.83926 | -71.89975 | 31945 ft | 535 kts | 70° |
| 2026-05-06 12:34 | 40.85071 | -71.85317 | 32416 ft | 531 kts | 70° |
| 2026-05-06 12:34 | 40.86207 | -71.80685 | 32790 ft | 530 kts | 69° |
| 2026-05-06 12:35 | 40.87343 | -71.76046 | 33081 ft | 531 kts | 69° |
| 2026-05-06 12:35 | 40.88480 | -71.71397 | 33355 ft | 532 kts | 69° |
| 2026-05-06 12:35 | 40.89616 | -71.66743 | 33678 ft | 532 kts | 69° |
| 2026-05-06 12:35 | 40.90748 | -71.62095 | 34027 ft | 531 kts | 69° |
| 2026-05-06 12:36 | 40.91877 | -71.57449 | 34327 ft | 531 kts | 69° |
| 2026-05-06 12:36 | 40.93002 | -71.52809 | 34647 ft | 529 kts | 69° |
| 2026-05-06 12:36 | 40.94121 | -71.48183 | 34967 ft | 528 kts | 69° |
| 2026-05-06 12:36 | 40.95239 | -71.43554 | 35220 ft | 529 kts | 69° |
| 2026-05-06 12:37 | 40.96358 | -71.38914 | 35447 ft | 530 kts | 69° |
| 2026-05-06 12:37 | 40.97476 | -71.34269 | 35706 ft | 530 kts | 69° |
| 2026-05-06 12:37 | 40.98592 | -71.29620 | 35974 ft | 530 kts | 69° |
| 2026-05-06 12:37 | 40.99705 | -71.24976 | 36246 ft | 530 kts | 69° |
| 2026-05-06 12:38 | 41.00818 | -71.20322 | 36468 ft | 530 kts | 69° |
| 2026-05-06 12:38 | 41.01928 | -71.15669 | 36725 ft | 530 kts | 68° |
| 2026-05-06 12:38 | 41.03038 | -71.11010 | 36924 ft | 532 kts | 68° |
| 2026-05-06 12:38 | 41.04152 | -71.06328 | 36983 ft | 534 kts | 69° |
| 2026-05-06 12:39 | 41.06377 | -70.96939 | 37006 ft | 532 kts | 69° |
| 2026-05-06 12:39 | 41.08576 | -70.87610 | 37004 ft | 530 kts | 69° |
| 2026-05-06 12:40 | 41.10762 | -70.78310 | 37015 ft | 528 kts | 69° |
| 2026-05-06 12:40 | 41.12920 | -70.69090 | 37016 ft | 526 kts | 69° |
| 2026-05-06 12:41 | 41.15082 | -70.59819 | 37020 ft | 526 kts | 69° |
| 2026-05-06 12:41 | 41.17236 | -70.50541 | 37028 ft | 525 kts | 69° |
| 2026-05-06 12:42 | 41.19380 | -70.41266 | 37124 ft | 528 kts | 69° |
| 2026-05-06 12:42 | 41.20457 | -70.36596 | 37379 ft | 528 kts | 69° |
| 2026-05-06 12:42 | 41.21527 | -70.31941 | 37655 ft | 526 kts | 69° |
| 2026-05-06 12:43 | 41.22592 | -70.27295 | 37956 ft | 525 kts | 69° |
| 2026-05-06 12:43 | 41.23654 | -70.22659 | 38216 ft | 525 kts | 69° |
| 2026-05-06 12:43 | 41.24714 | -70.18023 | 38464 ft | 524 kts | 69° |
| 2026-05-06 12:43 | 41.25769 | -70.13400 | 38786 ft | 521 kts | 69° |
| 2026-05-06 12:44 | 41.26854 | -70.08813 | 38993 ft | 519 kts | 65° |
| 2026-05-06 12:44 | 41.28278 | -70.04428 | 39085 ft | 515 kts | 57° |
| 2026-05-06 12:44 | 41.30046 | -70.00305 | 39189 ft | 512 kts | 51° |
| 2026-05-06 12:44 | 41.32084 | -69.96458 | 39300 ft | 506 kts | 44° |
| 2026-05-06 12:45 | 41.34362 | -69.92906 | 39437 ft | 504 kts | 43° |
| 2026-05-06 12:45 | 41.36670 | -69.89398 | 39599 ft | 504 kts | 42° |
| 2026-05-06 12:45 | 41.41281 | -69.82397 | 39953 ft | 501 kts | 43° |
| 2026-05-06 12:46 | 41.43570 | -69.78888 | 40015 ft | 502 kts | 43° |
| 2026-05-06 12:46 | 41.48110 | -69.71856 | 40026 ft | 497 kts | 43° |
| 2026-05-06 12:47 | 41.52584 | -69.64876 | 40040 ft | 495 kts | 43° |
| 2026-05-06 12:47 | 41.57053 | -69.57891 | 40045 ft | 495 kts | 43° |
| 2026-05-06 12:48 | 41.61513 | -69.50908 | 40049 ft | 495 kts | 44° |
| 2026-05-06 12:48 | 41.65953 | -69.43939 | 40042 ft | 496 kts | 44° |
| 2026-05-06 12:49 | 41.70419 | -69.36914 | 40043 ft | 496 kts | 44° |
| 2026-05-06 12:49 | 41.74882 | -69.29878 | 40045 ft | 496 kts | 44° |
| 2026-05-06 12:50 | 41.78593 | -69.24014 | 40040 ft | 497 kts | 44° |
| 2026-05-06 12:50 | 41.83058 | -69.16943 | 40040 ft | 497 kts | 44° |
| 2026-05-06 12:51 | 41.87516 | -69.09864 | 40045 ft | 497 kts | 44° |
| 2026-05-06 12:51 | 41.91969 | -69.02781 | 40047 ft | 497 kts | 45° |
| 2026-05-06 12:52 | 41.96426 | -68.95671 | 40046 ft | 497 kts | 45° |
| 2026-05-06 12:52 | 42.00878 | -68.88553 | 40041 ft | 497 kts | 45° |
| 2026-05-06 12:53 | 42.05327 | -68.81422 | 40058 ft | 498 kts | 45° |
| 2026-05-06 12:53 | 42.09772 | -68.74281 | 40046 ft | 498 kts | 45° |
| 2026-05-06 12:54 | 42.14211 | -68.67133 | 40046 ft | 498 kts | 45° |
| 2026-05-06 12:54 | 42.18649 | -68.59969 | 40054 ft | 498 kts | 45° |
| 2026-05-06 12:55 | 42.23082 | -68.52796 | 40054 ft | 498 kts | 45° |
| 2026-05-06 12:55 | 42.27512 | -68.45611 | 40056 ft | 498 kts | 45° |
| 2026-05-06 12:56 | 42.31935 | -68.38418 | 40045 ft | 497 kts | 45° |
| 2026-05-06 12:56 | 42.36353 | -68.31219 | 40057 ft | 498 kts | 45° |
| 2026-05-06 12:57 | 42.40740 | -68.24052 | 40046 ft | 498 kts | 45° |
| 2026-05-06 12:57 | 42.45156 | -68.16818 | 40053 ft | 498 kts | 46° |
| 2026-05-06 12:58 | 42.49593 | -68.09533 | 40055 ft | 498 kts | 46° |
| 2026-05-06 12:58 | 42.53967 | -68.02334 | 40042 ft | 498 kts | 46° |
| 2026-05-06 12:59 | 42.58368 | -67.95074 | 40044 ft | 498 kts | 46° |
| 2026-05-06 12:59 | 42.62762 | -67.87806 | 40028 ft | 498 kts | 46° |
| 2026-05-06 13:00 | 42.67153 | -67.80526 | 40034 ft | 498 kts | 46° |
| 2026-05-06 13:00 | 42.71542 | -67.73231 | 40040 ft | 498 kts | 46° |
| 2026-05-06 13:01 | 42.75926 | -67.65926 | 40052 ft | 499 kts | 46° |
| 2026-05-06 13:01 | 42.80313 | -67.58599 | 40043 ft | 499 kts | 46° |
| 2026-05-06 13:02 | 42.84697 | -67.51257 | 40045 ft | 500 kts | 46° |
| 2026-05-06 13:02 | 42.89084 | -67.43893 | 40044 ft | 500 kts | 46° |
| 2026-05-06 13:03 | 42.93465 | -67.36519 | 40056 ft | 501 kts | 47° |
| 2026-05-06 13:03 | 42.97843 | -67.29133 | 40047 ft | 500 kts | 47° |
| 2026-05-06 13:04 | 43.02210 | -67.21744 | 40045 ft | 499 kts | 47° |
| 2026-05-06 13:04 | 43.06567 | -67.14357 | 40054 ft | 499 kts | 47° |
| 2026-05-06 13:05 | 43.10914 | -67.06966 | 40046 ft | 499 kts | 47° |
| 2026-05-06 13:05 | 43.15257 | -66.99565 | 40045 ft | 498 kts | 47° |
| 2026-05-06 13:06 | 43.19467 | -66.92008 | 40068 ft | 499 kts | 50° |
| 2026-05-06 13:06 | 43.23584 | -66.84335 | 40052 ft | 500 kts | 50° |
| 2026-05-06 13:07 | 43.27679 | -66.76701 | 40050 ft | 500 kts | 50° |
| 2026-05-06 13:07 | 43.31816 | -66.69027 | 40049 ft | 500 kts | 50° |
| 2026-05-06 13:08 | 43.35961 | -66.61343 | 40053 ft | 501 kts | 50° |
| 2026-05-06 13:08 | 43.40106 | -66.53643 | 40048 ft | 501 kts | 50° |
| 2026-05-06 13:09 | 43.44244 | -66.45933 | 40053 ft | 501 kts | 50° |
| 2026-05-06 13:09 | 43.48379 | -66.38206 | 40062 ft | 501 kts | 50° |
| 2026-05-06 13:10 | 43.52510 | -66.30466 | 40054 ft | 501 kts | 50° |
| 2026-05-06 13:10 | 43.56635 | -66.22715 | 40051 ft | 502 kts | 50° |
| 2026-05-06 13:11 | 43.60759 | -66.14949 | 40059 ft | 502 kts | 50° |
| 2026-05-06 13:11 | 43.64874 | -66.07177 | 40058 ft | 502 kts | 51° |
| 2026-05-06 13:12 | 43.68988 | -65.99386 | 40061 ft | 502 kts | 51° |
| 2026-05-06 13:12 | 43.73094 | -65.91591 | 40061 ft | 502 kts | 51° |
| 2026-05-06 13:13 | 43.77196 | -65.83785 | 40067 ft | 501 kts | 51° |
| 2026-05-06 13:13 | 43.81060 | -65.76409 | 40070 ft | 501 kts | 51° |
| 2026-05-06 13:14 | 43.85149 | -65.68583 | 40077 ft | 501 kts | 51° |
| 2026-05-06 13:14 | 43.89231 | -65.60750 | 40112 ft | 501 kts | 51° |
| 2026-05-06 13:15 | 43.93310 | -65.52902 | 40097 ft | 502 kts | 52° |
| 2026-05-06 13:15 | 43.97258 | -65.45287 | 40091 ft | 502 kts | 52° |
| 2026-05-06 13:16 | 44.01331 | -65.37409 | 40089 ft | 502 kts | 52° |
| 2026-05-06 13:16 | 44.05401 | -65.29517 | 40088 ft | 502 kts | 52° |
| 2026-05-06 13:17 | 44.09464 | -65.21615 | 40096 ft | 502 kts | 52° |
| 2026-05-06 13:17 | 44.13526 | -65.13696 | 40089 ft | 502 kts | 52° |
| 2026-05-06 13:18 | 44.17550 | -65.05827 | 40108 ft | 502 kts | 52° |
| 2026-05-06 13:18 | 44.21601 | -64.97884 | 40107 ft | 503 kts | 52° |
| 2026-05-06 13:19 | 44.25650 | -64.89924 | 40102 ft | 504 kts | 52° |
| 2026-05-06 13:19 | 44.29701 | -64.81939 | 40089 ft | 504 kts | 52° |
| 2026-05-06 13:20 | 44.33745 | -64.73946 | 40102 ft | 504 kts | 53° |
| 2026-05-06 13:20 | 44.37793 | -64.65921 | 40089 ft | 505 kts | 53° |
| 2026-05-06 13:21 | 44.41832 | -64.57893 | 40075 ft | 505 kts | 53° |
| 2026-05-06 13:21 | 44.45618 | -64.50346 | 40080 ft | 505 kts | 53° |
| 2026-05-06 13:22 | 44.49652 | -64.42285 | 40071 ft | 506 kts | 53° |
| 2026-05-06 13:22 | 44.53685 | -64.34204 | 40070 ft | 506 kts | 53° |
| 2026-05-06 13:23 | 44.57712 | -64.26110 | 40082 ft | 506 kts | 53° |
| 2026-05-06 13:23 | 44.61737 | -64.17998 | 40078 ft | 507 kts | 53° |
| 2026-05-06 13:24 | 44.65763 | -64.09862 | 40085 ft | 507 kts | 53° |
| 2026-05-06 13:24 | 44.69785 | -64.01712 | 40098 ft | 508 kts | 53° |
| 2026-05-06 13:25 | 44.73808 | -63.93535 | 40117 ft | 508 kts | 53° |
| 2026-05-06 13:25 | 44.77790 | -63.85419 | 40092 ft | 509 kts | 53° |
| 2026-05-06 13:26 | 44.81810 | -63.77201 | 40092 ft | 510 kts | 53° |
| 2026-05-06 13:26 | 44.85801 | -63.69020 | 40114 ft | 510 kts | 53° |
| 2026-05-06 13:27 | 44.89815 | -63.60768 | 40115 ft | 510 kts | 53° |
| 2026-05-06 13:27 | 44.93825 | -63.52500 | 40092 ft | 511 kts | 53° |
| 2026-05-06 13:28 | 44.97836 | -63.44207 | 40089 ft | 512 kts | 53° |
| 2026-05-06 13:28 | 45.01841 | -63.35902 | 40135 ft | 511 kts | 53° |
| 2026-05-06 13:29 | 45.05842 | -63.27582 | 40110 ft | 512 kts | 53° |
| 2026-05-06 13:29 | 45.09838 | -63.19247 | 40105 ft | 512 kts | 54° |
| 2026-05-06 13:30 | 45.13828 | -63.10900 | 40103 ft | 512 kts | 54° |
| 2026-05-06 13:30 | 45.17813 | -63.02541 | 40114 ft | 512 kts | 54° |
| 2026-05-06 13:31 | 45.21800 | -62.94152 | 40104 ft | 513 kts | 54° |
| 2026-05-06 13:31 | 45.25781 | -62.85750 | 40097 ft | 513 kts | 54° |
| 2026-05-06 13:32 | 45.29760 | -62.77328 | 40096 ft | 514 kts | 54° |
| 2026-05-06 13:32 | 45.33737 | -62.68886 | 40090 ft | 514 kts | 54° |
| 2026-05-06 13:33 | 45.37703 | -62.60441 | 40085 ft | 513 kts | 54° |
| 2026-05-06 13:33 | 45.41663 | -62.51984 | 40072 ft | 513 kts | 54° |
| 2026-05-06 13:34 | 45.45612 | -62.43526 | 40073 ft | 513 kts | 54° |
| 2026-05-06 13:34 | 45.49551 | -62.35063 | 40075 ft | 512 kts | 54° |
| 2026-05-06 13:35 | 45.53483 | -62.26592 | 40076 ft | 512 kts | 54° |
| 2026-05-06 13:35 | 45.56745 | -62.19544 | 40075 ft | 512 kts | 54° |
| 2026-05-06 13:36 | 45.60663 | -62.11055 | 40067 ft | 512 kts | 54° |
| 2026-05-06 13:36 | 45.65208 | -62.01176 | 40059 ft | 512 kts | 54° |
| 2026-05-06 13:37 | 45.68480 | -61.94042 | 40057 ft | 512 kts | 55° |
| 2026-05-06 13:37 | 45.72377 | -61.85522 | 40081 ft | 512 kts | 55° |
| 2026-05-06 13:38 | 45.76263 | -61.77002 | 40057 ft | 511 kts | 55° |
| 2026-05-06 13:38 | 45.80138 | -61.68478 | 40065 ft | 510 kts | 55° |
| 2026-05-06 13:39 | 45.84002 | -61.59955 | 40089 ft | 510 kts | 56° |
| 2026-05-06 13:39 | 45.87857 | -61.51425 | 40090 ft | 509 kts | 56° |
| 2026-05-06 13:40 | 45.92329 | -61.41496 | 40083 ft | 510 kts | 56° |
| 2026-05-06 13:40 | 45.95525 | -61.34379 | 40084 ft | 510 kts | 56° |
| 2026-05-06 13:41 | 45.99363 | -61.25808 | 40090 ft | 510 kts | 56° |
| 2026-05-06 13:41 | 46.03176 | -61.17267 | 40086 ft | 510 kts | 56° |
| 2026-05-06 13:42 | 46.07033 | -61.08601 | 40083 ft | 511 kts | 56° |
| 2026-05-06 13:42 | 46.10834 | -61.00034 | 40068 ft | 511 kts | 56° |
| 2026-05-06 13:43 | 46.14654 | -60.91401 | 40077 ft | 510 kts | 57° |
| 2026-05-06 13:43 | 46.18463 | -60.82762 | 40080 ft | 510 kts | 57° |
| 2026-05-06 13:44 | 46.22265 | -60.74113 | 40073 ft | 510 kts | 57° |
| 2026-05-06 13:44 | 46.26063 | -60.65448 | 40061 ft | 510 kts | 57° |
| 2026-05-06 13:45 | 46.29850 | -60.56778 | 40075 ft | 511 kts | 57° |
| 2026-05-06 13:45 | 46.35528 | -60.43732 | 40058 ft | 511 kts | 57° |
| 2026-05-06 13:46 | 46.39304 | -60.35021 | 40053 ft | 511 kts | 57° |
| 2026-05-06 13:46 | 46.43076 | -60.26294 | 40047 ft | 511 kts | 57° |
| 2026-05-06 13:47 | 46.46843 | -60.17548 | 40045 ft | 511 kts | 57° |
| 2026-05-06 13:47 | 46.50559 | -60.08895 | 40046 ft | 512 kts | 57° |
| 2026-05-06 13:48 | 46.54318 | -60.00114 | 40053 ft | 512 kts | 57° |
| 2026-05-06 13:48 | 46.58068 | -59.91327 | 40060 ft | 512 kts | 58° |
| 2026-05-06 13:49 | 46.61814 | -59.82520 | 40059 ft | 512 kts | 58° |
| 2026-05-06 13:49 | 46.65365 | -59.74146 | 40066 ft | 512 kts | 58° |
| 2026-05-06 13:50 | 46.69095 | -59.65322 | 40060 ft | 512 kts | 58° |
| 2026-05-06 13:50 | 46.72820 | -59.56482 | 40066 ft | 512 kts | 58° |
| 2026-05-06 13:51 | 46.76534 | -59.47639 | 40074 ft | 511 kts | 58° |
| 2026-05-06 13:51 | 46.80241 | -59.38786 | 40076 ft | 511 kts | 58° |
| 2026-05-06 13:52 | 46.83939 | -59.29924 | 40082 ft | 511 kts | 58° |
| 2026-05-06 13:52 | 46.87630 | -59.21051 | 40084 ft | 511 kts | 58° |
| 2026-05-06 13:53 | 46.91312 | -59.12170 | 40081 ft | 511 kts | 59° |
| 2026-05-06 13:53 | 46.94960 | -59.03345 | 40094 ft | 510 kts | 59° |
| 2026-05-06 13:54 | 46.98622 | -58.94455 | 40105 ft | 510 kts | 59° |
| 2026-05-06 13:54 | 47.02275 | -58.85560 | 40099 ft | 509 kts | 59° |
| 2026-05-06 13:55 | 47.05919 | -58.76656 | 40100 ft | 509 kts | 59° |
| 2026-05-06 13:55 | 47.09556 | -58.67741 | 40115 ft | 509 kts | 59° |
| 2026-05-06 13:56 | 47.13184 | -58.58819 | 40113 ft | 509 kts | 59° |
| 2026-05-06 13:56 | 47.16802 | -58.49894 | 40116 ft | 509 kts | 59° |
| 2026-05-06 13:57 | 47.20413 | -58.40953 | 40120 ft | 508 kts | 59° |
| 2026-05-06 13:57 | 47.24016 | -58.32005 | 40130 ft | 508 kts | 59° |
| 2026-05-06 13:58 | 47.27612 | -58.23046 | 40137 ft | 508 kts | 60° |
| 2026-05-06 13:58 | 47.31200 | -58.14075 | 40124 ft | 508 kts | 60° |
| 2026-05-06 13:59 | 47.34780 | -58.05096 | 40137 ft | 508 kts | 60° |
| 2026-05-06 13:59 | 47.38348 | -57.96118 | 40152 ft | 507 kts | 60° |
| 2026-05-06 14:00 | 47.41884 | -57.87190 | 40149 ft | 507 kts | 60° |
| 2026-05-06 14:00 | 47.45437 | -57.78187 | 40150 ft | 507 kts | 60° |
| 2026-05-06 14:01 | 47.48982 | -57.69177 | 40154 ft | 507 kts | 60° |
| 2026-05-06 14:01 | 47.52519 | -57.60155 | 40161 ft | 507 kts | 60° |
| 2026-05-06 14:02 | 47.56051 | -57.51118 | 40165 ft | 507 kts | 60° |
| 2026-05-06 14:02 | 47.59573 | -57.42075 | 40166 ft | 507 kts | 61° |
| 2026-05-06 14:03 | 47.62884 | -57.33545 | 40166 ft | 507 kts | 61° |
| 2026-05-06 14:03 | 47.66392 | -57.24479 | 40178 ft | 507 kts | 61° |
| 2026-05-06 14:04 | 47.69892 | -57.15406 | 40155 ft | 506 kts | 61° |
| 2026-05-06 14:04 | 47.73382 | -57.06326 | 40161 ft | 506 kts | 61° |
| 2026-05-06 14:05 | 47.76862 | -56.97238 | 40148 ft | 506 kts | 61° |
| 2026-05-06 14:05 | 47.80334 | -56.88139 | 40148 ft | 505 kts | 61° |
| 2026-05-06 14:06 | 47.83798 | -56.79036 | 40135 ft | 505 kts | 62° |
| 2026-05-06 14:06 | 47.87250 | -56.69930 | 40107 ft | 505 kts | 62° |
| 2026-05-06 14:07 | 47.90696 | -56.60811 | 40092 ft | 505 kts | 62° |
| 2026-05-06 14:07 | 47.94130 | -56.51691 | 40098 ft | 505 kts | 62° |
| 2026-05-06 14:08 | 47.97536 | -56.42616 | 40073 ft | 505 kts | 62° |
| 2026-05-06 14:08 | 48.00958 | -56.33464 | 40068 ft | 505 kts | 62° |
| 2026-05-06 14:09 | 48.04374 | -56.24298 | 40065 ft | 505 kts | 62° |
| 2026-05-06 14:09 | 48.07786 | -56.15111 | 40056 ft | 505 kts | 62° |
| 2026-05-06 14:10 | 48.11189 | -56.05913 | 40071 ft | 505 kts | 62° |
| 2026-05-06 14:10 | 48.14588 | -55.96698 | 40073 ft | 506 kts | 62° |
| 2026-05-06 14:11 | 48.17980 | -55.87470 | 40073 ft | 506 kts | 62° |
| 2026-05-06 14:11 | 48.21366 | -55.78223 | 40077 ft | 506 kts | 62° |
| 2026-05-06 14:12 | 48.24743 | -55.68971 | 40077 ft | 506 kts | 62° |
| 2026-05-06 14:12 | 48.28114 | -55.59702 | 40077 ft | 506 kts | 62° |
| 2026-05-06 14:13 | 48.31477 | -55.50421 | 40084 ft | 506 kts | 62° |
| 2026-05-06 14:13 | 48.34834 | -55.41124 | 40083 ft | 506 kts | 62° |
| 2026-05-06 14:14 | 48.38184 | -55.31813 | 40083 ft | 506 kts | 62° |
| 2026-05-06 14:14 | 48.41527 | -55.22489 | 40085 ft | 506 kts | 62° |
| 2026-05-06 14:15 | 48.44864 | -55.13149 | 40075 ft | 507 kts | 62° |
| 2026-05-06 14:15 | 48.48195 | -55.03791 | 40092 ft | 507 kts | 62° |
| 2026-05-06 14:16 | 48.51519 | -54.94420 | 40095 ft | 507 kts | 62° |
| 2026-05-06 14:16 | 48.54839 | -54.85029 | 40095 ft | 507 kts | 62° |
| 2026-05-06 14:17 | 48.58150 | -54.75626 | 40088 ft | 508 kts | 62° |
| 2026-05-06 14:17 | 48.61456 | -54.66202 | 40115 ft | 508 kts | 62° |
| 2026-05-06 14:18 | 48.64759 | -54.56755 | 40102 ft | 508 kts | 62° |
| 2026-05-06 14:18 | 48.68057 | -54.47287 | 40099 ft | 509 kts | 62° |
| 2026-05-06 14:19 | 48.71327 | -54.37867 | 40089 ft | 509 kts | 62° |
| 2026-05-06 14:19 | 48.74612 | -54.28364 | 40103 ft | 509 kts | 62° |
| 2026-05-06 14:20 | 48.77916 | -54.18775 | 40085 ft | 510 kts | 62° |
| 2026-05-06 14:20 | 48.81189 | -54.09240 | 40082 ft | 510 kts | 62° |
| 2026-05-06 14:21 | 48.84430 | -53.99760 | 40077 ft | 509 kts | 62° |
| 2026-05-06 14:21 | 48.87682 | -53.90213 | 40080 ft | 509 kts | 62° |
| 2026-05-06 14:22 | 48.90927 | -53.80656 | 40073 ft | 509 kts | 62° |
| 2026-05-06 14:22 | 48.94164 | -53.71085 | 40076 ft | 509 kts | 62° |
| 2026-05-06 14:23 | 48.97389 | -53.61512 | 40063 ft | 508 kts | 62° |
| 2026-05-06 14:23 | 49.00606 | -53.51927 | 40067 ft | 509 kts | 62° |
| 2026-05-06 14:24 | 49.03299 | -53.43876 | 40063 ft | 509 kts | 62° |
| 2026-05-06 14:24 | 49.06484 | -53.34318 | 40064 ft | 510 kts | 62° |
| 2026-05-06 14:25 | 49.09689 | -53.24667 | 40063 ft | 510 kts | 62° |
| 2026-05-06 14:25 | 49.12887 | -53.14999 | 40068 ft | 511 kts | 62° |
| 2026-05-06 14:26 | 49.16085 | -53.05296 | 40061 ft | 512 kts | 62° |
| 2026-05-06 14:26 | 49.19277 | -52.95571 | 40047 ft | 512 kts | 62° |
| 2026-05-06 14:27 | 49.22458 | -52.85845 | 40059 ft | 511 kts | 62° |
| 2026-05-06 14:27 | 49.25624 | -52.76123 | 40070 ft | 510 kts | 62° |
| 2026-05-06 14:28 | 49.28781 | -52.66395 | 40061 ft | 510 kts | 62° |
| 2026-05-06 14:28 | 49.31926 | -52.56667 | 40059 ft | 509 kts | 62° |
| 2026-05-06 14:29 | 49.35056 | -52.46944 | 40068 ft | 509 kts | 62° |
| 2026-05-06 14:29 | 49.38179 | -52.37209 | 40076 ft | 508 kts | 62° |
| 2026-05-06 14:30 | 49.41292 | -52.27463 | 40063 ft | 508 kts | 62° |
| 2026-05-06 14:30 | 49.44397 | -52.17708 | 40065 ft | 508 kts | 62° |
| 2026-05-06 14:31 | 49.47493 | -52.07942 | 40076 ft | 508 kts | 62° |
| 2026-05-06 14:31 | 49.50533 | -51.98130 | 40074 ft | 509 kts | 65° |
| 2026-05-06 14:32 | 49.53195 | -51.88036 | 40078 ft | 509 kts | 67° |
| 2026-05-06 14:32 | 49.55776 | -51.77890 | 40074 ft | 508 kts | 67° |
| 2026-05-06 14:33 | 49.58363 | -51.67764 | 40084 ft | 508 kts | 67° |
| 2026-05-06 14:33 | 49.60943 | -51.57710 | 40097 ft | 508 kts | 66° |
| 2026-05-06 14:34 | 49.63539 | -51.47577 | 40087 ft | 508 kts | 66° |
| 2026-05-06 14:34 | 49.66125 | -51.37432 | 40087 ft | 508 kts | 67° |
| 2026-05-06 14:35 | 49.68702 | -51.27272 | 40090 ft | 508 kts | 67° |
| 2026-05-06 14:35 | 49.71271 | -51.17098 | 40092 ft | 508 kts | 67° |
| 2026-05-06 14:36 | 49.73830 | -51.06912 | 40099 ft | 509 kts | 67° |
| 2026-05-06 14:36 | 49.76385 | -50.96700 | 40094 ft | 509 kts | 67° |
| 2026-05-06 14:37 | 49.78932 | -50.86470 | 40095 ft | 509 kts | 67° |
| 2026-05-06 14:37 | 49.81469 | -50.76235 | 40098 ft | 509 kts | 67° |
| 2026-05-06 14:38 | 49.83997 | -50.65990 | 40104 ft | 509 kts | 66° |
| 2026-05-06 14:38 | 49.86516 | -50.55736 | 40099 ft | 509 kts | 67° |
| 2026-05-06 14:39 | 49.89026 | -50.45468 | 40103 ft | 509 kts | 67° |
| 2026-05-06 14:39 | 49.91525 | -50.35197 | 40101 ft | 509 kts | 67° |
| 2026-05-06 14:40 | 49.94016 | -50.24911 | 40109 ft | 509 kts | 67° |
| 2026-05-06 14:40 | 49.96499 | -50.14611 | 40102 ft | 509 kts | 67° |
| 2026-05-06 14:41 | 49.98958 | -50.04367 | 40107 ft | 509 kts | 67° |
| 2026-05-06 14:41 | 50.01014 | -49.93822 | 40109 ft | 511 kts | 75° |
| 2026-05-06 14:42 | 50.02539 | -49.83028 | 40107 ft | 511 kts | 76° |
| 2026-05-06 14:42 | 50.04031 | -49.72210 | 40119 ft | 512 kts | 76° |
| 2026-05-06 14:43 | 50.05549 | -49.61393 | 40104 ft | 512 kts | 76° |
| 2026-05-06 14:43 | 50.07079 | -49.50574 | 40104 ft | 512 kts | 76° |
| 2026-05-06 14:44 | 50.08603 | -49.39759 | 40108 ft | 512 kts | 76° |
| 2026-05-06 14:45 | 50.10868 | -49.23522 | 40123 ft | 511 kts | 76° |
| 2026-05-06 14:45 | 50.12362 | -49.12694 | 40102 ft | 511 kts | 75° |
| 2026-05-06 14:46 | 50.13840 | -49.01897 | 40111 ft | 509 kts | 76° |
| 2026-05-06 14:46 | 50.15305 | -48.91124 | 40108 ft | 507 kts | 76° |
| 2026-05-06 14:47 | 50.16757 | -48.80372 | 40117 ft | 507 kts | 76° |
| 2026-05-06 14:47 | 50.18198 | -48.69619 | 40134 ft | 506 kts | 76° |
| 2026-05-06 14:48 | 50.19630 | -48.58850 | 40120 ft | 507 kts | 76° |
| 2026-05-06 14:48 | 50.21052 | -48.48074 | 40124 ft | 507 kts | 76° |
| 2026-05-06 14:49 | 50.22465 | -48.37284 | 40122 ft | 507 kts | 76° |
| 2026-05-06 14:49 | 50.23868 | -48.26490 | 40115 ft | 507 kts | 76° |
| 2026-05-06 14:50 | 50.25261 | -48.15689 | 40141 ft | 507 kts | 76° |
| 2026-05-06 14:50 | 50.26645 | -48.04873 | 40130 ft | 508 kts | 76° |
| 2026-05-06 14:51 | 50.28019 | -47.94048 | 40125 ft | 508 kts | 76° |
| 2026-05-06 14:51 | 50.29384 | -47.83213 | 40129 ft | 508 kts | 76° |
| 2026-05-06 14:52 | 50.30729 | -47.72444 | 40128 ft | 508 kts | 76° |
| 2026-05-06 14:52 | 50.32074 | -47.61596 | 40144 ft | 508 kts | 76° |
| 2026-05-06 14:53 | 50.33406 | -47.50760 | 40134 ft | 507 kts | 76° |
| 2026-05-06 14:53 | 50.34725 | -47.39942 | 40126 ft | 505 kts | 76° |
| 2026-05-06 14:54 | 50.36030 | -47.29157 | 40131 ft | 504 kts | 76° |
| 2026-05-06 14:54 | 50.37322 | -47.18387 | 40134 ft | 503 kts | 77° |
| 2026-05-06 14:55 | 50.38604 | -47.07618 | 40141 ft | 503 kts | 77° |
| 2026-05-06 14:55 | 50.39876 | -46.96842 | 40134 ft | 503 kts | 77° |
| 2026-05-06 14:56 | 50.41138 | -46.86058 | 40141 ft | 503 kts | 77° |
| 2026-05-06 14:56 | 50.42391 | -46.75255 | 40142 ft | 504 kts | 77° |
| 2026-05-06 14:57 | 50.43635 | -46.64440 | 40141 ft | 504 kts | 77° |
| 2026-05-06 14:57 | 50.44871 | -46.53607 | 40159 ft | 505 kts | 77° |
| 2026-05-06 14:58 | 50.46098 | -46.42756 | 40151 ft | 505 kts | 77° |
| 2026-05-06 14:58 | 50.47316 | -46.31886 | 40142 ft | 506 kts | 77° |
| 2026-05-06 14:59 | 50.48524 | -46.21013 | 40154 ft | 506 kts | 77° |
| 2026-05-06 14:59 | 50.49724 | -46.10116 | 40154 ft | 506 kts | 77° |
| 2026-05-06 15:00 | 50.50912 | -45.99219 | 40164 ft | 507 kts | 77° |
| 2026-05-06 15:00 | 50.52093 | -45.88301 | 40160 ft | 507 kts | 77° |
| 2026-05-06 15:01 | 50.53265 | -45.77361 | 40158 ft | 508 kts | 77° |
| 2026-05-06 15:01 | 50.54428 | -45.66405 | 40156 ft | 508 kts | 77° |
| 2026-05-06 15:02 | 50.55581 | -45.55440 | 40159 ft | 508 kts | 77° |
| 2026-05-06 15:02 | 50.56716 | -45.44540 | 40158 ft | 509 kts | 77° |
| 2026-05-06 15:03 | 50.57852 | -45.33539 | 40155 ft | 509 kts | 77° |
| 2026-05-06 15:03 | 50.58976 | -45.22532 | 40159 ft | 510 kts | 77° |
| 2026-05-06 15:04 | 50.60091 | -45.11519 | 40159 ft | 510 kts | 77° |
| 2026-05-06 15:04 | 50.61195 | -45.00492 | 40158 ft | 510 kts | 77° |
| 2026-05-06 15:05 | 50.62291 | -44.89454 | 40168 ft | 511 kts | 77° |
| 2026-05-06 15:05 | 50.63377 | -44.78396 | 40165 ft | 511 kts | 77° |
| 2026-05-06 15:06 | 50.64454 | -44.67331 | 40167 ft | 511 kts | 77° |
| 2026-05-06 15:06 | 50.65520 | -44.56250 | 40168 ft | 512 kts | 77° |
| 2026-05-06 15:07 | 50.66576 | -44.45161 | 40165 ft | 512 kts | 78° |
| 2026-05-06 15:07 | 50.67622 | -44.34064 | 40176 ft | 512 kts | 78° |
| 2026-05-06 15:08 | 50.68657 | -44.22955 | 40170 ft | 512 kts | 78° |
| 2026-05-06 15:08 | 50.69682 | -44.11843 | 40164 ft | 512 kts | 78° |
| 2026-05-06 15:09 | 50.70696 | -44.00738 | 40166 ft | 511 kts | 78° |
| 2026-05-06 15:09 | 50.71530 | -43.91509 | 40167 ft | 511 kts | 78° |
| 2026-05-06 15:10 | 50.72691 | -43.78525 | 40176 ft | 511 kts | 78° |
| 2026-05-06 15:10 | 50.73508 | -43.69284 | 40169 ft | 511 kts | 78° |
| 2026-05-06 15:11 | 50.74480 | -43.58177 | 40168 ft | 511 kts | 78° |
| 2026-05-06 15:11 | 50.75441 | -43.47064 | 40172 ft | 511 kts | 78° |
| 2026-05-06 15:12 | 50.76391 | -43.35954 | 40174 ft | 510 kts | 78° |
| 2026-05-06 15:12 | 50.77330 | -43.24849 | 40180 ft | 510 kts | 78° |
| 2026-05-06 15:13 | 50.78258 | -43.13745 | 40166 ft | 510 kts | 78° |
| 2026-05-06 15:13 | 50.79174 | -43.02643 | 40173 ft | 509 kts | 78° |
| 2026-05-06 15:14 | 50.80079 | -42.91558 | 40172 ft | 509 kts | 79° |
| 2026-05-06 15:14 | 50.80973 | -42.80469 | 40173 ft | 508 kts | 79° |
| 2026-05-06 15:15 | 50.81857 | -42.69370 | 40182 ft | 509 kts | 79° |
| 2026-05-06 15:15 | 50.82730 | -42.58270 | 40172 ft | 509 kts | 79° |
| 2026-05-06 15:16 | 50.83593 | -42.47161 | 40171 ft | 509 kts | 79° |
| 2026-05-06 15:16 | 50.84445 | -42.36051 | 40171 ft | 509 kts | 79° |
| 2026-05-06 15:17 | 50.85287 | -42.24942 | 40171 ft | 508 kts | 79° |
| 2026-05-06 15:17 | 50.86117 | -42.13831 | 40183 ft | 509 kts | 79° |
| 2026-05-06 15:18 | 50.86938 | -42.02712 | 40167 ft | 508 kts | 79° |
| 2026-05-06 15:18 | 50.87746 | -41.91601 | 40180 ft | 508 kts | 80° |
| 2026-05-06 15:19 | 50.88545 | -41.80485 | 40170 ft | 508 kts | 80° |
| 2026-05-06 15:19 | 50.89331 | -41.69382 | 40161 ft | 507 kts | 80° |
| 2026-05-06 15:20 | 50.90108 | -41.58272 | 40173 ft | 507 kts | 80° |
| 2026-05-06 15:20 | 50.90874 | -41.47158 | 40166 ft | 507 kts | 80° |
| 2026-05-06 15:21 | 50.91629 | -41.36040 | 40161 ft | 508 kts | 80° |
| 2026-05-06 15:21 | 50.92369 | -41.24988 | 40161 ft | 508 kts | 80° |
| 2026-05-06 15:22 | 50.93104 | -41.13857 | 40159 ft | 508 kts | 80° |
| 2026-05-06 15:22 | 50.93829 | -41.02715 | 40177 ft | 508 kts | 81° |
| 2026-05-06 15:23 | 50.94543 | -40.91562 | 40163 ft | 508 kts | 81° |
| 2026-05-06 15:23 | 50.95246 | -40.80410 | 40155 ft | 509 kts | 81° |
| 2026-05-06 15:24 | 50.95940 | -40.69246 | 40155 ft | 508 kts | 81° |
| 2026-05-06 15:24 | 50.96622 | -40.58084 | 40152 ft | 508 kts | 81° |
| 2026-05-06 15:25 | 50.97295 | -40.46913 | 40165 ft | 509 kts | 81° |
| 2026-05-06 15:25 | 50.97957 | -40.35732 | 40153 ft | 509 kts | 81° |
| 2026-05-06 15:26 | 50.98609 | -40.24531 | 40150 ft | 510 kts | 81° |
| 2026-05-06 15:26 | 50.99251 | -40.13326 | 40146 ft | 510 kts | 81° |
| 2026-05-06 15:27 | 50.99892 | -40.02120 | 40146 ft | 509 kts | 80° |
| 2026-05-06 15:27 | 51.01173 | -39.91124 | 40154 ft | 506 kts | 73° |
| 2026-05-06 15:28 | 51.02792 | -39.80253 | 40154 ft | 506 kts | 73° |
| 2026-05-06 15:28 | 51.04401 | -39.69364 | 40144 ft | 507 kts | 73° |
| 2026-05-06 15:29 | 51.05971 | -39.58433 | 40144 ft | 507 kts | 73° |
| 2026-05-06 15:29 | 51.07515 | -39.47486 | 40141 ft | 508 kts | 74° |
| 2026-05-06 15:30 | 51.09047 | -39.36519 | 40145 ft | 508 kts | 74° |
| 2026-05-06 15:30 | 51.10571 | -39.25543 | 40145 ft | 508 kts | 74° |
| 2026-05-06 15:31 | 51.12085 | -39.14573 | 40133 ft | 507 kts | 74° |
| 2026-05-06 15:31 | 51.13578 | -39.03675 | 40132 ft | 507 kts | 74° |
| 2026-05-06 15:32 | 51.15813 | -38.87211 | 40136 ft | 507 kts | 75° |
| 2026-05-06 15:32 | 51.17289 | -38.76232 | 40132 ft | 507 kts | 75° |
| 2026-05-06 15:33 | 51.18754 | -38.65247 | 40133 ft | 507 kts | 75° |
| 2026-05-06 15:33 | 51.20209 | -38.54258 | 40130 ft | 507 kts | 75° |
| 2026-05-06 15:34 | 51.21654 | -38.43262 | 40151 ft | 507 kts | 75° |
| 2026-05-06 15:34 | 51.23088 | -38.32256 | 40137 ft | 507 kts | 75° |
| 2026-05-06 15:35 | 51.24513 | -38.21243 | 40129 ft | 507 kts | 75° |
| 2026-05-06 15:35 | 51.25926 | -38.10226 | 40129 ft | 507 kts | 75° |
| 2026-05-06 15:36 | 51.27330 | -37.99200 | 40132 ft | 507 kts | 75° |
| 2026-05-06 15:36 | 51.28724 | -37.88168 | 40130 ft | 507 kts | 76° |
| 2026-05-06 15:37 | 51.30106 | -37.77132 | 40127 ft | 506 kts | 76° |
| 2026-05-06 15:37 | 51.31476 | -37.66097 | 40124 ft | 506 kts | 76° |
| 2026-05-06 15:38 | 51.32837 | -37.55057 | 40122 ft | 506 kts | 76° |
| 2026-05-06 15:38 | 51.34185 | -37.44025 | 40136 ft | 506 kts | 76° |
| 2026-05-06 15:39 | 51.35524 | -37.32979 | 40121 ft | 506 kts | 76° |
| 2026-05-06 15:39 | 51.36854 | -37.21921 | 40119 ft | 506 kts | 76° |
| 2026-05-06 15:40 | 51.38163 | -37.10934 | 40118 ft | 506 kts | 76° |
| 2026-05-06 15:40 | 51.39470 | -36.99877 | 40117 ft | 506 kts | 77° |
| 2026-05-06 15:41 | 51.40767 | -36.88812 | 40124 ft | 505 kts | 77° |
| 2026-05-06 15:41 | 51.42052 | -36.77745 | 40114 ft | 505 kts | 77° |
| 2026-05-06 15:42 | 51.43327 | -36.66678 | 40110 ft | 505 kts | 77° |
| 2026-05-06 15:42 | 51.44590 | -36.55611 | 40112 ft | 505 kts | 77° |
| 2026-05-06 15:43 | 51.45843 | -36.44540 | 40107 ft | 505 kts | 77° |
| 2026-05-06 15:43 | 51.47086 | -36.33461 | 40103 ft | 505 kts | 77° |
| 2026-05-06 15:44 | 51.48319 | -36.22367 | 40101 ft | 505 kts | 77° |
| 2026-05-06 15:44 | 51.49541 | -36.11266 | 40102 ft | 505 kts | 77° |
| 2026-05-06 15:45 | 51.50755 | -36.00149 | 40102 ft | 506 kts | 78° |
| 2026-05-06 15:45 | 51.51957 | -35.89033 | 40116 ft | 506 kts | 78° |
| 2026-05-06 15:46 | 51.53148 | -35.77916 | 40096 ft | 505 kts | 78° |
| 2026-05-06 15:46 | 51.54328 | -35.66793 | 40098 ft | 505 kts | 78° |
| 2026-05-06 15:47 | 51.55497 | -35.55679 | 40094 ft | 505 kts | 78° |
| 2026-05-06 15:47 | 51.56648 | -35.44621 | 40092 ft | 504 kts | 78° |
| 2026-05-06 15:48 | 51.57796 | -35.33499 | 40102 ft | 504 kts | 78° |
| 2026-05-06 15:48 | 51.58932 | -35.22373 | 40091 ft | 504 kts | 78° |
| 2026-05-06 15:49 | 51.60058 | -35.11242 | 40093 ft | 504 kts | 78° |
| 2026-05-06 15:49 | 51.61173 | -35.00114 | 40092 ft | 504 kts | 78° |
| 2026-05-06 15:50 | 51.62277 | -34.88978 | 40096 ft | 504 kts | 79° |
| 2026-05-06 15:50 | 51.63370 | -34.77840 | 40088 ft | 504 kts | 79° |
| 2026-05-06 15:51 | 51.64453 | -34.66696 | 40091 ft | 504 kts | 79° |
| 2026-05-06 15:51 | 51.65525 | -34.55556 | 40090 ft | 503 kts | 79° |
| 2026-05-06 15:52 | 51.66586 | -34.44412 | 40086 ft | 503 kts | 79° |
| 2026-05-06 15:52 | 51.67636 | -34.33262 | 40090 ft | 503 kts | 79° |
| 2026-05-06 15:53 | 51.68675 | -34.22112 | 40071 ft | 503 kts | 79° |
| 2026-05-06 15:53 | 51.69704 | -34.10953 | 40085 ft | 503 kts | 80° |
| 2026-05-06 15:54 | 51.70722 | -33.99801 | 40084 ft | 503 kts | 80° |
| 2026-05-06 15:54 | 51.71729 | -33.88639 | 40082 ft | 503 kts | 80° |
| 2026-05-06 15:55 | 51.72726 | -33.77474 | 40083 ft | 503 kts | 80° |
| 2026-05-06 15:55 | 51.73713 | -33.66293 | 40067 ft | 503 kts | 81° |
| 2026-05-06 15:56 | 51.74524 | -33.57007 | 40078 ft | 503 kts | 81° |
| 2026-05-06 15:56 | 51.75491 | -33.45829 | 40068 ft | 503 kts | 81° |
| 2026-05-06 15:57 | 51.76447 | -33.34640 | 40074 ft | 503 kts | 81° |
| 2026-05-06 15:57 | 51.77394 | -33.23444 | 40065 ft | 503 kts | 81° |
| 2026-05-06 15:58 | 51.78329 | -33.12244 | 40065 ft | 503 kts | 81° |
| 2026-05-06 15:58 | 51.79254 | -33.01031 | 40047 ft | 504 kts | 81° |
| 2026-05-06 15:59 | 51.80169 | -32.89809 | 40050 ft | 504 kts | 81° |
| 2026-05-06 15:59 | 51.81074 | -32.78578 | 40061 ft | 504 kts | 82° |
| 2026-05-06 16:00 | 51.81969 | -32.67330 | 40050 ft | 505 kts | 82° |
| 2026-05-06 16:00 | 51.82855 | -32.56056 | 40044 ft | 506 kts | 82° |
| 2026-05-06 16:01 | 51.83731 | -32.44769 | 40046 ft | 506 kts | 82° |
| 2026-05-06 16:01 | 51.84596 | -32.33476 | 40030 ft | 506 kts | 82° |
| 2026-05-06 16:02 | 51.85451 | -32.22177 | 40031 ft | 506 kts | 82° |
| 2026-05-06 16:02 | 51.86295 | -32.10861 | 40037 ft | 507 kts | 82° |
| 2026-05-06 16:03 | 51.87123 | -31.99623 | 40029 ft | 507 kts | 82° |
| 2026-05-06 16:03 | 51.87945 | -31.88301 | 40023 ft | 507 kts | 82° |